sensor_id;sensor_type;location;lat;lon;timestamp;P1;durP1;ratioP1;P2;durP2;ratioP2
51286;SDS011;37364;46.974;18.916;2023-01-08T00:00:25;312.65;;;90.10;;
51286;SDS011;37364;46.974;18.916;2023-01-08T00:02:56;297.40;;;84.07;;
51286;SDS011;37364;46.974;18.916;2023-01-08T00:05:27;287.08;;;84.38;;
51286;SDS011;37364;46.974;18.916;2023-01-08T00:08:00;277.95;;;81.00;;
51286;SDS011;37364;46.974;18.916;2023-01-08T00:10:30;223.73;;;82.18;;
51286;SDS011;37364;46.974;18.916;2023-01-08T00:13:02;212.52;;;78.95;;
51286;SDS011;37364;46.974;18.916;2023-01-08T00:15:33;346.52;;;83.43;;
51286;SDS011;37364;46.974;18.916;2023-01-08T00:18:04;228.57;;;82.30;;
51286;SDS011;37364;46.974;18.916;2023-01-08T00:20:34;204.05;;;79.20;;
51286;SDS011;37364;46.974;18.916;2023-01-08T00:23:08;276.55;;;82.43;;
51286;SDS011;37364;46.974;18.916;2023-01-08T00:25:39;335.65;;;82.85;;
51286;SDS011;37364;46.974;18.916;2023-01-08T00:28:09;299.48;;;80.43;;
51286;SDS011;37364;46.974;18.916;2023-01-08T00:30:40;198.70;;;75.38;;
51286;SDS011;37364;46.974;18.916;2023-01-08T00:33:13;193.85;;;75.20;;
51286;SDS011;37364;46.974;18.916;2023-01-08T00:35:43;166.70;;;75.32;;
51286;SDS011;37364;46.974;18.916;2023-01-08T00:38:16;204.35;;;77.38;;
51286;SDS011;37364;46.974;18.916;2023-01-08T00:40:46;173.60;;;76.82;;
51286;SDS011;37364;46.974;18.916;2023-01-08T00:43:19;288.70;;;77.55;;
51286;SDS011;37364;46.974;18.916;2023-01-08T00:45:50;206.13;;;76.47;;
51286;SDS011;37364;46.974;18.916;2023-01-08T00:48:21;199.38;;;77.97;;
51286;SDS011;37364;46.974;18.916;2023-01-08T00:50:52;283.17;;;79.28;;
51286;SDS011;37364;46.974;18.916;2023-01-08T00:53:26;200.18;;;76.85;;
51286;SDS011;37364;46.974;18.916;2023-01-08T00:55:59;181.23;;;79.25;;
51286;SDS011;37364;46.974;18.916;2023-01-08T01:01:00;217.98;;;81.70;;
51286;SDS011;37364;46.974;18.916;2023-01-08T01:03:38;166.75;;;81.93;;
51286;SDS011;37364;46.974;18.916;2023-01-08T01:06:09;150.68;;;81.03;;
51286;SDS011;37364;46.974;18.916;2023-01-08T01:08:43;168.43;;;82.85;;
51286;SDS011;37364;46.974;18.916;2023-01-08T01:11:16;149.97;;;82.17;;
51286;SDS011;37364;46.974;18.916;2023-01-08T01:13:48;151.50;;;82.10;;
51286;SDS011;37364;46.974;18.916;2023-01-08T01:16:18;204.30;;;86.07;;
51286;SDS011;37364;46.974;18.916;2023-01-08T01:18:49;195.75;;;83.78;;
51286;SDS011;37364;46.974;18.916;2023-01-08T01:21:21;161.00;;;88.28;;
51286;SDS011;37364;46.974;18.916;2023-01-08T01:23:55;214.25;;;88.75;;
51286;SDS011;37364;46.974;18.916;2023-01-08T01:26:27;177.95;;;89.00;;
51286;SDS011;37364;46.974;18.916;2023-01-08T01:28:57;181.05;;;85.00;;
51286;SDS011;37364;46.974;18.916;2023-01-08T01:31:29;151.10;;;86.15;;
51286;SDS011;37364;46.974;18.916;2023-01-08T01:34:00;199.85;;;82.97;;
51286;SDS011;37364;46.974;18.916;2023-01-08T01:36:30;167.57;;;83.40;;
51286;SDS011;37364;46.974;18.916;2023-01-08T01:39:03;180.73;;;82.28;;
51286;SDS011;37364;46.974;18.916;2023-01-08T01:41:36;165.50;;;81.45;;
51286;SDS011;37364;46.974;18.916;2023-01-08T01:47:05;264.27;;;83.35;;
51286;SDS011;37364;46.974;18.916;2023-01-08T01:49:42;191.90;;;80.05;;
51286;SDS011;37364;46.974;18.916;2023-01-08T01:52:18;430.70;;;91.25;;
51286;SDS011;37364;46.974;18.916;2023-01-08T01:54:52;189.65;;;82.75;;
51286;SDS011;37364;46.974;18.916;2023-01-08T01:57:22;256.48;;;85.75;;
51286;SDS011;37364;46.974;18.916;2023-01-08T01:59:53;520.85;;;88.88;;
51286;SDS011;37364;46.974;18.916;2023-01-08T02:02:25;361.58;;;88.65;;
51286;SDS011;37364;46.974;18.916;2023-01-08T02:04:58;358.98;;;87.93;;
51286;SDS011;37364;46.974;18.916;2023-01-08T02:07:30;388.58;;;88.10;;
51286;SDS011;37364;46.974;18.916;2023-01-08T02:10:11;396.25;;;91.15;;
51286;SDS011;37364;46.974;18.916;2023-01-08T02:12:49;225.95;;;86.53;;
51286;SDS011;37364;46.974;18.916;2023-01-08T02:15:29;231.07;;;84.25;;
51286;SDS011;37364;46.974;18.916;2023-01-08T02:18:08;246.48;;;84.70;;
51286;SDS011;37364;46.974;18.916;2023-01-08T02:20:42;273.83;;;84.20;;
51286;SDS011;37364;46.974;18.916;2023-01-08T02:23:18;316.77;;;87.65;;
51286;SDS011;37364;46.974;18.916;2023-01-08T02:28:51;393.60;;;87.65;;
51286;SDS011;37364;46.974;18.916;2023-01-08T02:31:27;263.55;;;88.07;;
51286;SDS011;37364;46.974;18.916;2023-01-08T02:33:59;544.33;;;95.28;;
51286;SDS011;37364;46.974;18.916;2023-01-08T02:36:31;446.52;;;91.50;;
51286;SDS011;37364;46.974;18.916;2023-01-08T02:39:09;184.15;;;88.35;;
51286;SDS011;37364;46.974;18.916;2023-01-08T02:41:50;237.18;;;94.88;;
51286;SDS011;37364;46.974;18.916;2023-01-08T02:44:27;350.20;;;96.75;;
51286;SDS011;37364;46.974;18.916;2023-01-08T02:47:14;212.18;;;89.28;;
51286;SDS011;37364;46.974;18.916;2023-01-08T02:49:53;280.17;;;91.93;;
51286;SDS011;37364;46.974;18.916;2023-01-08T02:52:29;191.60;;;88.95;;
51286;SDS011;37364;46.974;18.916;2023-01-08T02:55:03;321.48;;;96.93;;
51286;SDS011;37364;46.974;18.916;2023-01-08T02:57:38;161.68;;;84.75;;
51286;SDS011;37364;46.974;18.916;2023-01-08T03:00:12;152.27;;;83.10;;
51286;SDS011;37364;46.974;18.916;2023-01-08T03:02:43;165.43;;;89.47;;
51286;SDS011;37364;46.974;18.916;2023-01-08T03:05:18;177.10;;;90.63;;
51286;SDS011;37364;46.974;18.916;2023-01-08T03:07:52;199.32;;;88.43;;
51286;SDS011;37364;46.974;18.916;2023-01-08T03:10:24;197.52;;;91.35;;
51286;SDS011;37364;46.974;18.916;2023-01-08T03:13:02;169.95;;;86.63;;
51286;SDS011;37364;46.974;18.916;2023-01-08T03:15:39;155.85;;;87.43;;
51286;SDS011;37364;46.974;18.916;2023-01-08T03:18:17;160.45;;;84.95;;
51286;SDS011;37364;46.974;18.916;2023-01-08T03:20:49;160.48;;;88.10;;
51286;SDS011;37364;46.974;18.916;2023-01-08T03:23:20;157.15;;;85.97;;
51286;SDS011;37364;46.974;18.916;2023-01-08T03:25:52;159.20;;;84.38;;
51286;SDS011;37364;46.974;18.916;2023-01-08T03:28:27;142.57;;;83.03;;
51286;SDS011;37364;46.974;18.916;2023-01-08T03:31:03;141.40;;;81.32;;
51286;SDS011;37364;46.974;18.916;2023-01-08T03:33:35;152.75;;;86.22;;
51286;SDS011;37364;46.974;18.916;2023-01-08T03:36:08;149.52;;;82.85;;
51286;SDS011;37364;46.974;18.916;2023-01-08T03:38:44;143.73;;;82.20;;
51286;SDS011;37364;46.974;18.916;2023-01-08T03:41:19;145.65;;;81.63;;
51286;SDS011;37364;46.974;18.916;2023-01-08T03:46:27;139.48;;;77.47;;
51286;SDS011;37364;46.974;18.916;2023-01-08T03:49:00;130.38;;;78.82;;
51286;SDS011;37364;46.974;18.916;2023-01-08T03:51:38;137.95;;;81.40;;
51286;SDS011;37364;46.974;18.916;2023-01-08T03:54:10;146.20;;;83.40;;
51286;SDS011;37364;46.974;18.916;2023-01-08T03:56:43;140.93;;;80.47;;
51286;SDS011;37364;46.974;18.916;2023-01-08T03:59:16;146.80;;;84.35;;
51286;SDS011;37364;46.974;18.916;2023-01-08T04:01:47;142.75;;;80.03;;
51286;SDS011;37364;46.974;18.916;2023-01-08T04:04:17;139.52;;;82.88;;
51286;SDS011;37364;46.974;18.916;2023-01-08T04:06:50;147.45;;;83.45;;
51286;SDS011;37364;46.974;18.916;2023-01-08T04:09:21;144.73;;;80.75;;
51286;SDS011;37364;46.974;18.916;2023-01-08T04:11:51;136.57;;;80.03;;
51286;SDS011;37364;46.974;18.916;2023-01-08T04:14:24;153.07;;;81.25;;
51286;SDS011;37364;46.974;18.916;2023-01-08T04:16:54;139.05;;;82.70;;
51286;SDS011;37364;46.974;18.916;2023-01-08T04:19:25;151.35;;;84.55;;
51286;SDS011;37364;46.974;18.916;2023-01-08T04:21:55;140.57;;;81.32;;
51286;SDS011;37364;46.974;18.916;2023-01-08T04:24:25;139.65;;;85.90;;
51286;SDS011;37364;46.974;18.916;2023-01-08T04:26:58;150.10;;;85.10;;
51286;SDS011;37364;46.974;18.916;2023-01-08T04:29:31;147.05;;;83.05;;
51286;SDS011;37364;46.974;18.916;2023-01-08T04:32:01;139.48;;;82.50;;
51286;SDS011;37364;46.974;18.916;2023-01-08T04:34:31;133.00;;;77.93;;
51286;SDS011;37364;46.974;18.916;2023-01-08T04:37:02;139.52;;;83.18;;
51286;SDS011;37364;46.974;18.916;2023-01-08T04:39:32;148.45;;;82.18;;
51286;SDS011;37364;46.974;18.916;2023-01-08T04:42:02;145.18;;;81.80;;
51286;SDS011;37364;46.974;18.916;2023-01-08T04:44:35;132.60;;;81.68;;
51286;SDS011;37364;46.974;18.916;2023-01-08T04:47:08;137.50;;;79.28;;
51286;SDS011;37364;46.974;18.916;2023-01-08T04:49:38;143.05;;;78.55;;
51286;SDS011;37364;46.974;18.916;2023-01-08T04:52:10;130.70;;;79.45;;
51286;SDS011;37364;46.974;18.916;2023-01-08T04:54:41;123.18;;;78.47;;
51286;SDS011;37364;46.974;18.916;2023-01-08T04:57:12;131.82;;;79.05;;
51286;SDS011;37364;46.974;18.916;2023-01-08T04:59:45;127.35;;;77.15;;
51286;SDS011;37364;46.974;18.916;2023-01-08T05:02:15;134.25;;;78.53;;
51286;SDS011;37364;46.974;18.916;2023-01-08T05:04:50;129.07;;;77.90;;
51286;SDS011;37364;46.974;18.916;2023-01-08T05:07:23;122.78;;;75.60;;
51286;SDS011;37364;46.974;18.916;2023-01-08T05:09:53;129.15;;;79.57;;
51286;SDS011;37364;46.974;18.916;2023-01-08T05:12:23;171.13;;;112.35;;
51286;SDS011;37364;46.974;18.916;2023-01-08T05:14:56;144.60;;;87.03;;
51286;SDS011;37364;46.974;18.916;2023-01-08T05:17:27;131.48;;;79.88;;
51286;SDS011;37364;46.974;18.916;2023-01-08T05:19:57;132.05;;;77.03;;
51286;SDS011;37364;46.974;18.916;2023-01-08T05:22:27;137.05;;;84.10;;
51286;SDS011;37364;46.974;18.916;2023-01-08T05:24:58;137.98;;;84.20;;
51286;SDS011;37364;46.974;18.916;2023-01-08T05:27:28;129.18;;;82.00;;
51286;SDS011;37364;46.974;18.916;2023-01-08T05:30:01;126.35;;;78.28;;
51286;SDS011;37364;46.974;18.916;2023-01-08T05:32:32;125.70;;;77.45;;
51286;SDS011;37364;46.974;18.916;2023-01-08T05:35:02;126.60;;;78.18;;
51286;SDS011;37364;46.974;18.916;2023-01-08T05:37:33;142.75;;;87.40;;
51286;SDS011;37364;46.974;18.916;2023-01-08T05:40:04;130.35;;;78.43;;
51286;SDS011;37364;46.974;18.916;2023-01-08T05:42:38;131.88;;;81.72;;
51286;SDS011;37364;46.974;18.916;2023-01-08T05:45:11;132.43;;;81.25;;
51286;SDS011;37364;46.974;18.916;2023-01-08T05:50:12;114.18;;;72.93;;
51286;SDS011;37364;46.974;18.916;2023-01-08T05:52:43;127.40;;;84.07;;
51286;SDS011;37364;46.974;18.916;2023-01-08T05:55:13;122.25;;;78.28;;
51286;SDS011;37364;46.974;18.916;2023-01-08T05:57:43;119.30;;;77.70;;
51286;SDS011;37364;46.974;18.916;2023-01-08T06:00:16;120.60;;;78.57;;
51286;SDS011;37364;46.974;18.916;2023-01-08T06:02:47;138.73;;;91.75;;
51286;SDS011;37364;46.974;18.916;2023-01-08T06:05:17;140.57;;;91.10;;
51286;SDS011;37364;46.974;18.916;2023-01-08T06:07:47;142.80;;;84.88;;
51286;SDS011;37364;46.974;18.916;2023-01-08T06:10:18;136.68;;;86.88;;
51286;SDS011;37364;46.974;18.916;2023-01-08T06:12:48;132.15;;;86.45;;
51286;SDS011;37364;46.974;18.916;2023-01-08T06:15:21;141.65;;;87.72;;
51286;SDS011;37364;46.974;18.916;2023-01-08T06:17:53;133.98;;;83.55;;
51286;SDS011;37364;46.974;18.916;2023-01-08T06:20:23;144.02;;;87.07;;
51286;SDS011;37364;46.974;18.916;2023-01-08T06:22:53;123.28;;;81.93;;
51286;SDS011;37364;46.974;18.916;2023-01-08T06:25:26;134.07;;;83.72;;
51286;SDS011;37364;46.974;18.916;2023-01-08T06:27:58;136.52;;;84.45;;
51286;SDS011;37364;46.974;18.916;2023-01-08T06:30:33;127.97;;;84.28;;
51286;SDS011;37364;46.974;18.916;2023-01-08T06:33:06;128.50;;;80.65;;
51286;SDS011;37364;46.974;18.916;2023-01-08T06:35:37;329.95;;;213.77;;
51286;SDS011;37364;46.974;18.916;2023-01-08T06:38:07;185.30;;;124.88;;
51286;SDS011;37364;46.974;18.916;2023-01-08T06:40:37;129.98;;;88.40;;
51286;SDS011;37364;46.974;18.916;2023-01-08T06:43:08;123.05;;;82.30;;
51286;SDS011;37364;46.974;18.916;2023-01-08T06:45:41;125.30;;;78.90;;
51286;SDS011;37364;46.974;18.916;2023-01-08T06:48:11;125.63;;;77.85;;
51286;SDS011;37364;46.974;18.916;2023-01-08T06:50:42;124.40;;;80.15;;
51286;SDS011;37364;46.974;18.916;2023-01-08T06:53:12;116.90;;;77.10;;
51286;SDS011;37364;46.974;18.916;2023-01-08T06:55:42;113.60;;;79.30;;
51286;SDS011;37364;46.974;18.916;2023-01-08T06:58:13;114.40;;;77.40;;
51286;SDS011;37364;46.974;18.916;2023-01-08T07:00:46;106.00;;;76.03;;
51286;SDS011;37364;46.974;18.916;2023-01-08T07:03:18;115.38;;;79.15;;
51286;SDS011;37364;46.974;18.916;2023-01-08T07:05:48;103.38;;;69.05;;
51286;SDS011;37364;46.974;18.916;2023-01-08T07:08:18;97.50;;;68.15;;
51286;SDS011;37364;46.974;18.916;2023-01-08T07:10:49;162.98;;;120.47;;
51286;SDS011;37364;46.974;18.916;2023-01-08T07:13:19;103.78;;;70.07;;
51286;SDS011;37364;46.974;18.916;2023-01-08T07:15:52;88.53;;;61.60;;
51286;SDS011;37364;46.974;18.916;2023-01-08T07:18:22;89.47;;;60.65;;
51286;SDS011;37364;46.974;18.916;2023-01-08T07:20:52;90.00;;;57.53;;
51286;SDS011;37364;46.974;18.916;2023-01-08T07:23:23;84.50;;;56.08;;
51286;SDS011;37364;46.974;18.916;2023-01-08T07:25:53;79.50;;;52.85;;
51286;SDS011;37364;46.974;18.916;2023-01-08T07:28:23;77.72;;;55.30;;
51286;SDS011;37364;46.974;18.916;2023-01-08T07:30:56;78.75;;;50.13;;
51286;SDS011;37364;46.974;18.916;2023-01-08T07:35:57;70.47;;;48.15;;
51286;SDS011;37364;46.974;18.916;2023-01-08T07:38:27;73.13;;;51.53;;
51286;SDS011;37364;46.974;18.916;2023-01-08T07:40:57;71.20;;;47.00;;
51286;SDS011;37364;46.974;18.916;2023-01-08T07:43:27;78.65;;;47.03;;
51286;SDS011;37364;46.974;18.916;2023-01-08T07:46:03;76.28;;;48.33;;
51286;SDS011;37364;46.974;18.916;2023-01-08T07:48:34;73.00;;;47.92;;
51286;SDS011;37364;46.974;18.916;2023-01-08T07:51:05;70.57;;;48.22;;
51286;SDS011;37364;46.974;18.916;2023-01-08T07:53:36;64.45;;;43.45;;
51286;SDS011;37364;46.974;18.916;2023-01-08T07:56:07;66.68;;;43.85;;
51286;SDS011;37364;46.974;18.916;2023-01-08T07:58:39;61.70;;;42.17;;
51286;SDS011;37364;46.974;18.916;2023-01-08T08:01:12;61.85;;;44.00;;
51286;SDS011;37364;46.974;18.916;2023-01-08T08:03:43;77.55;;;46.88;;
51286;SDS011;37364;46.974;18.916;2023-01-08T08:06:13;61.63;;;43.72;;
51286;SDS011;37364;46.974;18.916;2023-01-08T08:08:45;60.78;;;42.72;;
51286;SDS011;37364;46.974;18.916;2023-01-08T08:11:16;56.58;;;40.72;;
51286;SDS011;37364;46.974;18.916;2023-01-08T08:13:48;54.75;;;39.20;;
51286;SDS011;37364;46.974;18.916;2023-01-08T08:16:24;59.83;;;40.65;;
51286;SDS011;37364;46.974;18.916;2023-01-08T08:18:57;54.35;;;38.10;;
51286;SDS011;37364;46.974;18.916;2023-01-08T08:21:27;58.13;;;39.47;;
51286;SDS011;37364;46.974;18.916;2023-01-08T08:23:58;55.42;;;37.33;;
51286;SDS011;37364;46.974;18.916;2023-01-08T08:26:29;49.13;;;35.25;;
51286;SDS011;37364;46.974;18.916;2023-01-08T08:28:59;55.05;;;35.10;;
51286;SDS011;37364;46.974;18.916;2023-01-08T08:31:32;51.58;;;34.45;;
51286;SDS011;37364;46.974;18.916;2023-01-08T08:34:02;48.50;;;34.28;;
51286;SDS011;37364;46.974;18.916;2023-01-08T08:36:33;49.53;;;33.88;;
51286;SDS011;37364;46.974;18.916;2023-01-08T08:39:05;42.22;;;30.77;;
51286;SDS011;37364;46.974;18.916;2023-01-08T08:41:35;40.70;;;30.55;;
51286;SDS011;37364;46.974;18.916;2023-01-08T08:44:05;47.05;;;30.42;;
51286;SDS011;37364;46.974;18.916;2023-01-08T08:46:38;40.78;;;29.83;;
51286;SDS011;37364;46.974;18.916;2023-01-08T08:49:09;46.03;;;30.08;;
51286;SDS011;37364;46.974;18.916;2023-01-08T08:51:39;38.05;;;28.08;;
51286;SDS011;37364;46.974;18.916;2023-01-08T08:54:10;40.67;;;27.77;;
51286;SDS011;37364;46.974;18.916;2023-01-08T08:56:40;43.63;;;28.70;;
51286;SDS011;37364;46.974;18.916;2023-01-08T08:59:11;34.13;;;25.98;;
51286;SDS011;37364;46.974;18.916;2023-01-08T09:01:44;37.08;;;27.35;;
51286;SDS011;37364;46.974;18.916;2023-01-08T09:04:16;42.55;;;27.73;;
51286;SDS011;37364;46.974;18.916;2023-01-08T09:06:46;32.58;;;25.17;;
51286;SDS011;37364;46.974;18.916;2023-01-08T09:09:17;42.60;;;26.23;;
51286;SDS011;37364;46.974;18.916;2023-01-08T09:11:53;43.97;;;28.58;;
51286;SDS011;37364;46.974;18.916;2023-01-08T09:14:23;45.70;;;27.17;;
51286;SDS011;37364;46.974;18.916;2023-01-08T09:16:57;42.50;;;26.88;;
51286;SDS011;37364;46.974;18.916;2023-01-08T09:19:29;37.17;;;25.90;;
51286;SDS011;37364;46.974;18.916;2023-01-08T09:22:01;39.90;;;26.42;;
51286;SDS011;37364;46.974;18.916;2023-01-08T09:24:32;36.42;;;25.17;;
51286;SDS011;37364;46.974;18.916;2023-01-08T09:27:09;40.60;;;25.25;;
51286;SDS011;37364;46.974;18.916;2023-01-08T09:29:43;34.95;;;25.70;;
51286;SDS011;37364;46.974;18.916;2023-01-08T09:32:15;31.13;;;25.05;;
51286;SDS011;37364;46.974;18.916;2023-01-08T09:34:48;34.97;;;24.88;;
51286;SDS011;37364;46.974;18.916;2023-01-08T09:37:20;49.28;;;30.25;;
51286;SDS011;37364;46.974;18.916;2023-01-08T09:39:51;37.15;;;25.08;;
51286;SDS011;37364;46.974;18.916;2023-01-08T09:42:28;35.85;;;25.23;;
51286;SDS011;37364;46.974;18.916;2023-01-08T09:45:03;31.15;;;23.88;;
51286;SDS011;37364;46.974;18.916;2023-01-08T09:47:46;38.38;;;25.25;;
51286;SDS011;37364;46.974;18.916;2023-01-08T09:50:17;36.78;;;26.40;;
51286;SDS011;37364;46.974;18.916;2023-01-08T09:52:48;40.30;;;27.42;;
51286;SDS011;37364;46.974;18.916;2023-01-08T09:55:18;41.67;;;28.67;;
51286;SDS011;37364;46.974;18.916;2023-01-08T09:57:50;46.05;;;29.92;;
51286;SDS011;37364;46.974;18.916;2023-01-08T10:00:24;36.67;;;28.50;;
51286;SDS011;37364;46.974;18.916;2023-01-08T10:03:01;45.72;;;28.38;;
51286;SDS011;37364;46.974;18.916;2023-01-08T10:05:33;40.17;;;27.75;;
51286;SDS011;37364;46.974;18.916;2023-01-08T10:08:05;39.28;;;24.98;;
51286;SDS011;37364;46.974;18.916;2023-01-08T10:10:38;37.47;;;27.60;;
51286;SDS011;37364;46.974;18.916;2023-01-08T10:13:14;34.35;;;26.45;;
51286;SDS011;37364;46.974;18.916;2023-01-08T10:15:46;35.50;;;26.63;;
51286;SDS011;37364;46.974;18.916;2023-01-08T10:18:20;46.67;;;30.13;;
51286;SDS011;37364;46.974;18.916;2023-01-08T10:20:54;38.92;;;29.90;;
51286;SDS011;37364;46.974;18.916;2023-01-08T10:23:24;35.78;;;26.50;;
51286;SDS011;37364;46.974;18.916;2023-01-08T10:25:56;45.13;;;27.23;;
51286;SDS011;37364;46.974;18.916;2023-01-08T10:28:31;35.17;;;26.95;;
51286;SDS011;37364;46.974;18.916;2023-01-08T10:31:04;36.70;;;24.65;;
51286;SDS011;37364;46.974;18.916;2023-01-08T10:33:40;41.00;;;26.25;;
51286;SDS011;37364;46.974;18.916;2023-01-08T10:36:13;33.58;;;22.80;;
51286;SDS011;37364;46.974;18.916;2023-01-08T10:38:47;29.38;;;22.60;;
51286;SDS011;37364;46.974;18.916;2023-01-08T10:41:20;30.30;;;22.60;;
51286;SDS011;37364;46.974;18.916;2023-01-08T10:43:55;27.75;;;21.20;;
51286;SDS011;37364;46.974;18.916;2023-01-08T10:46:31;26.73;;;21.15;;
51286;SDS011;37364;46.974;18.916;2023-01-08T10:49:16;35.05;;;23.10;;
51286;SDS011;37364;46.974;18.916;2023-01-08T10:51:54;31.75;;;23.70;;
51286;SDS011;37364;46.974;18.916;2023-01-08T10:54:28;33.92;;;23.40;;
51286;SDS011;37364;46.974;18.916;2023-01-08T10:57:02;40.95;;;23.92;;
51286;SDS011;37364;46.974;18.916;2023-01-08T10:59:48;36.47;;;25.25;;
51286;SDS011;37364;46.974;18.916;2023-01-08T11:05:08;36.70;;;25.27;;
51286;SDS011;37364;46.974;18.916;2023-01-08T11:07:38;29.55;;;21.27;;
51286;SDS011;37364;46.974;18.916;2023-01-08T11:10:19;27.42;;;21.65;;
51286;SDS011;37364;46.974;18.916;2023-01-08T11:12:55;32.85;;;25.45;;
51286;SDS011;37364;46.974;18.916;2023-01-08T11:15:30;36.03;;;28.48;;
51286;SDS011;37364;46.974;18.916;2023-01-08T11:21:05;27.60;;;21.45;;
51286;SDS011;37364;46.974;18.916;2023-01-08T11:23:44;28.52;;;20.83;;
51286;SDS011;37364;46.974;18.916;2023-01-08T11:26:16;30.90;;;21.33;;
51286;SDS011;37364;46.974;18.916;2023-01-08T11:28:50;29.15;;;22.05;;
51286;SDS011;37364;46.974;18.916;2023-01-08T11:31:27;27.63;;;20.77;;
51286;SDS011;37364;46.974;18.916;2023-01-08T11:34:05;29.27;;;21.95;;
51286;SDS011;37364;46.974;18.916;2023-01-08T11:36:50;33.25;;;22.08;;
51286;SDS011;37364;46.974;18.916;2023-01-08T11:39:25;29.85;;;22.73;;
51286;SDS011;37364;46.974;18.916;2023-01-08T11:42:00;26.75;;;20.80;;
51286;SDS011;37364;46.974;18.916;2023-01-08T11:44:46;29.10;;;20.95;;
51286;SDS011;37364;46.974;18.916;2023-01-08T11:47:40;32.38;;;22.02;;
51286;SDS011;37364;46.974;18.916;2023-01-08T11:50:21;30.65;;;21.27;;
51286;SDS011;37364;46.974;18.916;2023-01-08T11:53:06;35.90;;;22.10;;
51286;SDS011;37364;46.974;18.916;2023-01-08T11:55:46;27.90;;;20.48;;
51286;SDS011;37364;46.974;18.916;2023-01-08T11:58:26;26.70;;;19.45;;
51286;SDS011;37364;46.974;18.916;2023-01-08T12:01:10;29.42;;;20.05;;
51286;SDS011;37364;46.974;18.916;2023-01-08T12:04:00;29.45;;;19.95;;
51286;SDS011;37364;46.974;18.916;2023-01-08T12:06:43;30.27;;;20.17;;
51286;SDS011;37364;46.974;18.916;2023-01-08T12:09:27;36.45;;;21.02;;
51286;SDS011;37364;46.974;18.916;2023-01-08T12:12:11;34.90;;;21.20;;
51286;SDS011;37364;46.974;18.916;2023-01-08T12:14:55;33.50;;;22.45;;
51286;SDS011;37364;46.974;18.916;2023-01-08T12:20:38;35.70;;;20.85;;
51286;SDS011;37364;46.974;18.916;2023-01-08T12:23:21;28.33;;;20.70;;
51286;SDS011;37364;46.974;18.916;2023-01-08T12:26:17;28.05;;;19.70;;
51286;SDS011;37364;46.974;18.916;2023-01-08T12:31:59;31.63;;;22.02;;
51286;SDS011;37364;46.974;18.916;2023-01-08T12:34:57;28.27;;;19.23;;
51286;SDS011;37364;46.974;18.916;2023-01-08T12:37:35;28.33;;;19.30;;
51286;SDS011;37364;46.974;18.916;2023-01-08T12:40:14;26.90;;;18.90;;
51286;SDS011;37364;46.974;18.916;2023-01-08T12:42:50;23.95;;;17.00;;
51286;SDS011;37364;46.974;18.916;2023-01-08T12:45:27;27.55;;;18.13;;
51286;SDS011;37364;46.974;18.916;2023-01-08T12:48:00;31.25;;;19.30;;
51286;SDS011;37364;46.974;18.916;2023-01-08T12:50:42;27.73;;;18.40;;
51286;SDS011;37364;46.974;18.916;2023-01-08T12:53:28;26.02;;;18.67;;
51286;SDS011;37364;46.974;18.916;2023-01-08T12:56:07;28.60;;;18.67;;
51286;SDS011;37364;46.974;18.916;2023-01-08T12:58:57;28.63;;;19.90;;
51286;SDS011;37364;46.974;18.916;2023-01-08T13:01:49;20.60;;;17.13;;
51286;SDS011;37364;46.974;18.916;2023-01-08T13:04:27;23.60;;;16.73;;
51286;SDS011;37364;46.974;18.916;2023-01-08T13:07:09;26.17;;;18.73;;
51286;SDS011;37364;46.974;18.916;2023-01-08T13:09:45;28.90;;;19.67;;
51286;SDS011;37364;46.974;18.916;2023-01-08T13:12:31;32.33;;;19.23;;
51286;SDS011;37364;46.974;18.916;2023-01-08T13:15:06;27.27;;;19.67;;
51286;SDS011;37364;46.974;18.916;2023-01-08T13:17:52;22.83;;;17.88;;
51286;SDS011;37364;46.974;18.916;2023-01-08T13:20:27;27.63;;;18.88;;
51286;SDS011;37364;46.974;18.916;2023-01-08T13:23:00;24.02;;;18.17;;
51286;SDS011;37364;46.974;18.916;2023-01-08T13:25:37;23.98;;;19.17;;
51286;SDS011;37364;46.974;18.916;2023-01-08T13:28:27;28.05;;;19.10;;
51286;SDS011;37364;46.974;18.916;2023-01-08T13:31:23;27.88;;;17.70;;
51286;SDS011;37364;46.974;18.916;2023-01-08T13:33:57;20.90;;;15.98;;
51286;SDS011;37364;46.974;18.916;2023-01-08T13:36:27;28.70;;;18.95;;
51286;SDS011;37364;46.974;18.916;2023-01-08T13:39:17;32.20;;;18.65;;
51286;SDS011;37364;46.974;18.916;2023-01-08T13:45:02;26.30;;;17.70;;
51286;SDS011;37364;46.974;18.916;2023-01-08T13:47:48;30.80;;;18.25;;
51286;SDS011;37364;46.974;18.916;2023-01-08T13:50:18;29.98;;;17.58;;
51286;SDS011;37364;46.974;18.916;2023-01-08T13:52:55;24.00;;;17.63;;
51286;SDS011;37364;46.974;18.916;2023-01-08T13:55:27;26.33;;;18.52;;
51286;SDS011;37364;46.974;18.916;2023-01-08T13:58:01;25.02;;;17.38;;
51286;SDS011;37364;46.974;18.916;2023-01-08T14:00:37;29.75;;;18.33;;
51286;SDS011;37364;46.974;18.916;2023-01-08T14:03:25;27.40;;;17.00;;
51286;SDS011;37364;46.974;18.916;2023-01-08T14:06:05;26.13;;;16.92;;
51286;SDS011;37364;46.974;18.916;2023-01-08T14:08:47;24.80;;;16.67;;
51286;SDS011;37364;46.974;18.916;2023-01-08T14:11:19;28.40;;;17.50;;
51286;SDS011;37364;46.974;18.916;2023-01-08T14:13:52;22.45;;;16.17;;
51286;SDS011;37364;46.974;18.916;2023-01-08T14:16:22;22.73;;;16.00;;
51286;SDS011;37364;46.974;18.916;2023-01-08T14:19:00;23.90;;;15.88;;
51286;SDS011;37364;46.974;18.916;2023-01-08T14:21:33;21.80;;;15.95;;
51286;SDS011;37364;46.974;18.916;2023-01-08T14:24:03;25.08;;;14.95;;
51286;SDS011;37364;46.974;18.916;2023-01-08T14:26:35;29.95;;;15.68;;
51286;SDS011;37364;46.974;18.916;2023-01-08T14:29:11;27.88;;;15.23;;
51286;SDS011;37364;46.974;18.916;2023-01-08T14:31:46;19.20;;;13.98;;
51286;SDS011;37364;46.974;18.916;2023-01-08T14:34:21;21.80;;;14.20;;
51286;SDS011;37364;46.974;18.916;2023-01-08T14:36:54;21.20;;;13.27;;
51286;SDS011;37364;46.974;18.916;2023-01-08T14:39:32;29.73;;;14.40;;
51286;SDS011;37364;46.974;18.916;2023-01-08T14:42:04;20.42;;;13.23;;
51286;SDS011;37364;46.974;18.916;2023-01-08T14:44:52;18.52;;;13.23;;
51286;SDS011;37364;46.974;18.916;2023-01-08T14:49:58;23.88;;;12.20;;
51286;SDS011;37364;46.974;18.916;2023-01-08T14:52:29;14.88;;;11.77;;
51286;SDS011;37364;46.974;18.916;2023-01-08T14:54:59;19.88;;;12.10;;
51286;SDS011;37364;46.974;18.916;2023-01-08T14:57:34;14.52;;;11.02;;
51286;SDS011;37364;46.974;18.916;2023-01-08T15:00:06;16.80;;;12.55;;
51286;SDS011;37364;46.974;18.916;2023-01-08T15:02:44;13.07;;;10.48;;
51286;SDS011;37364;46.974;18.916;2023-01-08T15:05:20;16.48;;;10.93;;
51286;SDS011;37364;46.974;18.916;2023-01-08T15:07:57;14.95;;;11.18;;
51286;SDS011;37364;46.974;18.916;2023-01-08T15:10:33;20.52;;;11.68;;
51286;SDS011;37364;46.974;18.916;2023-01-08T15:13:05;19.20;;;12.18;;
51286;SDS011;37364;46.974;18.916;2023-01-08T15:15:53;16.67;;;10.23;;